Time;durP1;ratioP1;P1;durP2;ratioP2;P2;SDS_P1;SDS_P2;PMS_P1;PMS_P2;Temp;Humidity;BMP_temperature;BMP_pressure;BME280_temperature;BME280_humidity;BME280_pressure;Samples;Min_cycle;Max_cycle;Signal;HPM_P1;HPM_P2
2022/03/13 00:00:25;;;;;;;5.85;5.35;;;;;;;;;;4999830;28;20044;-66
2022/03/13 00:02:51;;;;;;;7.38;6.68;;;;;;;;;;5000904;28;20049;-65
2022/03/13 00:05:17;;;;;;;6.10;5.60;;;;;;;;;;5000672;28;20033;-66
2022/03/13 00:07:47;;;;;;;6.45;5.53;;;;;;;;;;5000328;28;20030;-66
2022/03/13 00:10:18;;;;;;;5.72;5.22;;;;;;;;;;5001256;28;20168;-66
2022/03/13 00:12:44;;;;;;;5.82;5.32;;;;;;;;;;5001890;28;20030;-65
2022/03/13 00:15:12;;;;;;;7.43;6.65;;;;;;;;;;5002674;28;20169;-66
2022/03/13 00:17:37;;;;;;;6.68;5.20;;;;;;;;;;5001228;28;20038;-67
2022/03/13 00:20:05;;;;;;;6.28;5.68;;;;;;;;;;4999387;28;20030;-66
2022/03/13 00:22:32;;;;;;;6.05;5.55;;;;;;;;;;5000106;28;20026;-65
2022/03/13 00:25:03;;;;;;;6.78;6.18;;;;;;;;;;4996823;28;20037;-66
2022/03/13 00:27:34;;;;;;;4.85;4.45;;;;;;;;;;4997617;28;20670;-67
2022/03/13 00:30:01;;;;;;;5.43;4.78;;;;;;;;;;4999737;28;20672;-65
2022/03/13 00:32:27;;;;;;;8.23;5.50;;;;;;;;;;5000710;28;20048;-65
2022/03/13 00:34:52;;;;;;;6.13;5.50;;;;;;;;;;5002873;28;20034;-67
2022/03/13 00:37:17;;;;;;;7.22;6.50;;;;;;;;;;5001401;28;20455;-67
2022/03/13 00:39:44;;;;;;;6.20;5.60;;;;;;;;;;4998949;28;20070;-66
2022/03/13 00:42:12;;;;;;;7.10;6.00;;;;;;;;;;4996060;28;20133;-66
2022/03/13 00:44:37;;;;;;;6.90;5.75;;;;;;;;;;4997774;28;20089;-66
2022/03/13 00:47:05;;;;;;;7.13;6.38;;;;;;;;;;4998290;28;20113;-66
2022/03/13 00:49:30;;;;;;;6.93;6.13;;;;;;;;;;4997790;28;20034;-67
2022/03/13 00:51:59;;;;;;;7.10;5.93;;;;;;;;;;4998116;28;20030;-65
2022/03/13 00:54:24;;;;;;;5.88;5.38;;;;;;;;;;4998681;28;20484;-65
2022/03/13 00:56:50;;;;;;;7.80;6.47;;;;;;;;;;4999627;28;20053;-64
2022/03/13 00:59:15;;;;;;;5.95;5.45;;;;;;;;;;4997481;28;20034;-66
2022/03/13 01:01:41;;;;;;;6.07;5.53;;;;;;;;;;5000445;28;20462;-66
2022/03/13 01:04:06;;;;;;;5.82;5.30;;;;;;;;;;4999519;28;20045;-67
2022/03/13 01:06:32;;;;;;;5.22;4.82;;;;;;;;;;4998524;28;20014;-67
2022/03/13 01:08:57;;;;;;;10.45;5.22;;;;;;;;;;5000381;28;20034;-65
2022/03/13 01:11:23;;;;;;;6.45;5.85;;;;;;;;;;5004146;28;20124;-67
2022/03/13 01:13:49;;;;;;;6.80;6.10;;;;;;;;;;5001095;28;20041;-67
2022/03/13 01:16:37;;;;;;;8.95;7.65;;;;;;;;;;5002604;28;20030;-66
2022/03/13 01:19:03;;;;;;;6.85;6.22;;;;;;;;;;5002170;28;20108;-66
2022/03/13 01:21:32;;;;;;;7.30;6.70;;;;;;;;;;4998704;28;20031;-66
2022/03/13 01:24:01;;;;;;;6.00;5.50;;;;;;;;;;4995702;28;20042;-66
2022/03/13 01:26:26;;;;;;;5.95;5.45;;;;;;;;;;4998755;28;20034;-66
2022/03/13 01:28:53;;;;;;;6.93;5.93;;;;;;;;;;4997934;28;20377;-66
2022/03/13 01:31:27;;;;;;;11.35;5.82;;;;;;;;;;4997551;28;20034;-66
2022/03/13 01:33:53;;;;;;;6.75;6.00;;;;;;;;;;4999384;28;20029;-65
2022/03/13 01:36:19;;;;;;;6.82;6.18;;;;;;;;;;4999696;28;20026;-66
2022/03/13 01:38:44;;;;;;;6.05;5.50;;;;;;;;;;4996414;28;20668;-65
2022/03/13 01:41:10;;;;;;;6.60;6.10;;;;;;;;;;4999808;28;20113;-65
2022/03/13 01:43:36;;;;;;;9.73;6.57;;;;;;;;;;5000322;28;20034;-64
2022/03/13 01:46:03;;;;;;;5.82;5.32;;;;;;;;;;4998798;28;20029;-64
2022/03/13 01:48:29;;;;;;;6.22;5.63;;;;;;;;;;4995908;28;20018;-66
2022/03/13 01:50:56;;;;;;;9.15;6.45;;;;;;;;;;4996683;28;20046;-65
2022/03/13 01:53:23;;;;;;;7.28;6.55;;;;;;;;;;4999193;28;20048;-66
2022/03/13 01:55:49;;;;;;;5.60;5.10;;;;;;;;;;5001565;28;20599;-66
2022/03/13 01:58:15;;;;;;;8.10;7.35;;;;;;;;;;4998836;28;20032;-66
2022/03/13 02:00:41;;;;;;;4.85;4.45;;;;;;;;;;4997231;28;20038;-65
2022/03/13 02:03:06;;;;;;;7.15;6.53;;;;;;;;;;4998866;28;20034;-66
2022/03/13 02:05:34;;;;;;;6.25;5.65;;;;;;;;;;4998776;28;20469;-66
2022/03/13 02:08:04;;;;;;;5.75;4.78;;;;;;;;;;4997704;28;20116;-66
2022/03/13 02:10:30;;;;;;;6.25;4.78;;;;;;;;;;4997098;28;20034;-66
2022/03/13 02:12:56;;;;;;;6.78;5.78;;;;;;;;;;4998929;28;20062;-65
2022/03/13 02:15:22;;;;;;;6.25;5.45;;;;;;;;;;4998567;28;20046;-65
2022/03/13 02:17:47;;;;;;;7.63;5.68;;;;;;;;;;4999422;28;20030;-66
2022/03/13 02:20:20;;;;;;;4.45;4.00;;;;;;;;;;4999816;28;20022;-65
2022/03/13 02:22:47;;;;;;;6.50;5.45;;;;;;;;;;4998136;28;20194;-66
2022/03/13 02:25:19;;;;;;;5.90;5.32;;;;;;;;;;4998901;28;20038;-65
2022/03/13 02:27:44;;;;;;;5.22;4.72;;;;;;;;;;4998539;28;20058;-67
2022/03/13 02:30:10;;;;;;;5.00;4.55;;;;;;;;;;4998182;28;20062;-65
2022/03/13 02:32:36;;;;;;;5.10;4.60;;;;;;;;;;4981855;28;20022;-66
2022/03/13 02:35:01;;;;;;;5.05;4.65;;;;;;;;;;4990748;28;20034;-66
2022/03/13 02:37:37;;;;;;;5.70;5.20;;;;;;;;;;4997423;28;20107;-66
2022/03/13 02:40:04;;;;;;;9.52;4.25;;;;;;;;;;4998618;28;20125;-66
2022/03/13 02:42:30;;;;;;;5.13;4.60;;;;;;;;;;4996289;28;20093;-65
2022/03/13 02:44:55;;;;;;;5.47;5.00;;;;;;;;;;4995768;28;20034;-65
2022/03/13 02:47:20;;;;;;;5.63;5.05;;;;;;;;;;4996446;28;20640;-65
2022/03/13 02:49:46;;;;;;;6.50;5.85;;;;;;;;;;4992156;28;20529;-65
2022/03/13 02:52:11;;;;;;;5.60;4.80;;;;;;;;;;4996226;28;20409;-66
2022/03/13 02:54:37;;;;;;;6.93;5.10;;;;;;;;;;4993709;28;20547;-67
2022/03/13 02:57:03;;;;;;;5.25;4.75;;;;;;;;;;4998927;28;20436;-66
2022/03/13 02:59:29;;;;;;;5.85;5.25;;;;;;;;;;4996071;28;21429;-66
2022/03/13 03:01:54;;;;;;;6.70;5.18;;;;;;;;;;4998394;28;20448;-66
2022/03/13 03:04:23;;;;;;;6.22;5.10;;;;;;;;;;5005520;28;20018;-65
2022/03/13 03:06:56;;;;;;;5.05;4.65;;;;;;;;;;4998861;28;20112;-65
2022/03/13 03:09:22;;;;;;;6.07;5.57;;;;;;;;;;5000593;28;20027;-65
2022/03/13 03:11:48;;;;;;;4.28;3.88;;;;;;;;;;5001282;28;20034;-66
2022/03/13 03:14:15;;;;;;;7.80;5.07;;;;;;;;;;5000890;28;20041;-65
2022/03/13 03:16:41;;;;;;;5.68;5.13;;;;;;;;;;5000373;28;20799;-66
2022/03/13 03:19:07;;;;;;;5.60;5.00;;;;;;;;;;5001379;28;20034;-66
2022/03/13 03:21:32;;;;;;;4.90;4.38;;;;;;;;;;5002533;28;20065;-66
2022/03/13 03:23:58;;;;;;;5.43;4.93;;;;;;;;;;4998312;28;20076;-65
2022/03/13 03:26:23;;;;;;;6.25;5.00;;;;;;;;;;5000199;28;20110;-65
2022/03/13 03:28:48;;;;;;;6.13;5.60;;;;;;;;;;5000384;28;20033;-65
2022/03/13 03:31:14;;;;;;;7.10;5.03;;;;;;;;;;5001070;28;20034;-66
2022/03/13 03:33:40;;;;;;;5.78;4.97;;;;;;;;;;5003167;28;20026;-66
2022/03/13 03:36:05;;;;;;;6.45;5.85;;;;;;;;;;4997238;28;20034;-65
2022/03/13 03:38:31;;;;;;;5.47;4.97;;;;;;;;;;4998494;28;20037;-65
2022/03/13 03:40:56;;;;;;;6.45;5.85;;;;;;;;;;5003576;28;20025;-65
2022/03/13 03:43:21;;;;;;;6.03;5.38;;;;;;;;;;5001176;28;20029;-65
2022/03/13 03:45:47;;;;;;;5.65;4.50;;;;;;;;;;5000924;28;20026;-65
2022/03/13 03:48:12;;;;;;;5.35;4.82;;;;;;;;;;5001268;28;20038;-65
2022/03/13 03:50:38;;;;;;;5.70;5.20;;;;;;;;;;4994320;28;20052;-65
2022/03/13 03:53:03;;;;;;;5.82;5.28;;;;;;;;;;5003414;28;20496;-65
2022/03/13 03:55:29;;;;;;;5.45;4.95;;;;;;;;;;4996455;28;20030;-66
2022/03/13 03:57:54;;;;;;;6.45;4.72;;;;;;;;;;4999109;28;20054;-65
2022/03/13 04:00:23;;;;;;;10.80;5.30;;;;;;;;;;4998239;28;20045;-65
2022/03/13 04:02:49;;;;;;;5.75;5.20;;;;;;;;;;4995156;28;20058;-66
2022/03/13 04:05:14;;;;;;;4.75;4.35;;;;;;;;;;4993834;28;20046;-64
2022/03/13 04:07:39;;;;;;;5.78;4.75;;;;;;;;;;4995836;28;20792;-66
2022/03/13 04:10:08;;;;;;;5.32;4.78;;;;;;;;;;4996782;28;20130;-66
2022/03/13 04:12:34;;;;;;;8.52;5.38;;;;;;;;;;4994747;28;20037;-65
2022/03/13 04:15:01;;;;;;;6.18;5.55;;;;;;;;;;4996082;28;20034;-65
2022/03/13 04:17:27;;;;;;;4.93;4.32;;;;;;;;;;4993138;28;20030;-66
2022/03/13 04:19:53;;;;;;;4.90;4.38;;;;;;;;;;4997926;28;20061;-65
2022/03/13 04:22:18;;;;;;;5.10;4.60;;;;;;;;;;4997942;28;20068;-66
2022/03/13 04:24:43;;;;;;;5.15;4.70;;;;;;;;;;4998208;28;20108;-65
2022/03/13 04:27:10;;;;;;;5.70;5.15;;;;;;;;;;4999700;28;20037;-66
2022/03/13 04:29:35;;;;;;;5.38;4.88;;;;;;;;;;5002496;28;20034;-65
2022/03/13 04:32:05;;;;;;;5.18;4.68;;;;;;;;;;4995873;28;20344;-65
2022/03/13 04:34:31;;;;;;;6.18;5.45;;;;;;;;;;4997323;28;20367;-65
2022/03/13 04:36:59;;;;;;;5.40;4.72;;;;;;;;;;4997095;28;20034;-65
2022/03/13 04:39:24;;;;;;;6.40;5.70;;;;;;;;;;5001278;28;20034;-66
2022/03/13 04:41:49;;;;;;;5.40;4.90;;;;;;;;;;4997133;28;20091;-66
2022/03/13 04:44:16;;;;;;;5.28;4.78;;;;;;;;;;4998786;28;20041;-65
2022/03/13 04:46:42;;;;;;;5.43;4.93;;;;;;;;;;5000061;28;20408;-66
2022/03/13 04:49:08;;;;;;;5.55;4.95;;;;;;;;;;4996854;28;20530;-65
2022/03/13 04:51:34;;;;;;;11.30;4.88;;;;;;;;;;4998085;28;20041;-65
2022/03/13 04:53:59;;;;;;;8.50;6.40;;;;;;;;;;4998885;28;20159;-65
2022/03/13 04:56:24;;;;;;;7.85;5.95;;;;;;;;;;4998273;28;20034;-65
2022/03/13 04:58:50;;;;;;;6.00;5.15;;;;;;;;;;4995603;28;20030;-65
2022/03/13 05:01:17;;;;;;;5.88;5.22;;;;;;;;;;5003240;28;20026;-65
2022/03/13 05:03:42;;;;;;;5.90;5.05;;;;;;;;;;4996951;28;20080;-65
2022/03/13 05:06:08;;;;;;;4.88;4.47;;;;;;;;;;4994209;28;20046;-66
2022/03/13 05:08:34;;;;;;;5.88;4.97;;;;;;;;;;4997132;28;20034;-66
2022/03/13 05:11:00;;;;;;;5.35;4.75;;;;;;;;;;4994162;28;20033;-66
2022/03/13 05:13:26;;;;;;;5.30;4.80;;;;;;;;;;4994186;28;20379;-65
2022/03/13 05:15:52;;;;;;;5.88;4.40;;;;;;;;;;4996554;28;20113;-65
2022/03/13 05:18:18;;;;;;;5.85;5.25;;;;;;;;;;4996025;28;20244;-65
2022/03/13 05:20:45;;;;;;;5.40;4.90;;;;;;;;;;4995254;28;20057;-65
2022/03/13 05:23:11;;;;;;;7.63;4.43;;;;;;;;;;4998019;28;20025;-66
2022/03/13 05:25:37;;;;;;;5.47;4.95;;;;;;;;;;4997430;28;20168;-66
2022/03/13 05:28:04;;;;;;;9.70;5.25;;;;;;;;;;4995059;28;20163;-66
2022/03/13 05:30:30;;;;;;;5.53;5.03;;;;;;;;;;4993488;28;20045;-66
2022/03/13 05:32:56;;;;;;;9.32;4.57;;;;;;;;;;4995323;28;20037;-65
2022/03/13 05:35:22;;;;;;;5.80;5.15;;;;;;;;;;4998038;28;20211;-66
2022/03/13 05:37:48;;;;;;;5.30;4.45;;;;;;;;;;4998011;28;20116;-65
2022/03/13 05:40:15;;;;;;;5.78;5.22;;;;;;;;;;4997582;28;20041;-65
2022/03/13 05:42:46;;;;;;;5.28;4.78;;;;;;;;;;4998977;28;20041;-65
2022/03/13 05:45:14;;;;;;;5.53;4.88;;;;;;;;;;4994456;28;20038;-65
2022/03/13 05:47:58;;;;;;;4.50;4.10;;;;;;;;;;5003288;28;20037;-66
2022/03/13 05:50:25;;;;;;;5.25;4.75;;;;;;;;;;4995245;28;20049;-65
2022/03/13 05:52:53;;;;;;;5.20;4.70;;;;;;;;;;4995882;28;20701;-65
2022/03/13 05:55:19;;;;;;;4.55;4.15;;;;;;;;;;4994915;28;20042;-66
2022/03/13 05:57:45;;;;;;;5.72;5.18;;;;;;;;;;4997080;28;20577;-65
2022/03/13 06:00:14;;;;;;;6.82;5.13;;;;;;;;;;4992581;28;20173;-66
2022/03/13 06:02:40;;;;;;;5.63;5.13;;;;;;;;;;4996603;28;20072;-65
2022/03/13 06:05:11;;;;;;;5.00;4.60;;;;;;;;;;4995805;28;20034;-65
2022/03/13 06:07:37;;;;;;;6.22;5.63;;;;;;;;;;5000196;28;20464;-65
2022/03/13 06:10:03;;;;;;;5.25;4.75;;;;;;;;;;4996545;28;20038;-67
2022/03/13 06:12:30;;;;;;;4.65;4.22;;;;;;;;;;4994194;28;20111;-66
2022/03/13 06:14:59;;;;;;;5.88;5.22;;;;;;;;;;4996960;28;20113;-66
2022/03/13 06:17:25;;;;;;;5.57;5.07;;;;;;;;;;4998560;28;20030;-66
2022/03/13 06:19:51;;;;;;;6.93;6.32;;;;;;;;;;5000827;28;20048;-67
2022/03/13 06:22:18;;;;;;;5.45;4.95;;;;;;;;;;5001274;28;20041;-64
2022/03/13 06:24:43;;;;;;;6.53;5.40;;;;;;;;;;4996697;28;20034;-66
2022/03/13 06:27:10;;;;;;;5.63;5.13;;;;;;;;;;4994971;28;20034;-66
2022/03/13 06:29:36;;;;;;;6.07;5.57;;;;;;;;;;4996458;28;20030;-65
2022/03/13 06:32:02;;;;;;;4.63;4.22;;;;;;;;;;4998753;28;20034;-65
2022/03/13 06:34:28;;;;;;;8.77;6.25;;;;;;;;;;4999369;28;20045;-65
2022/03/13 06:36:53;;;;;;;6.50;5.20;;;;;;;;;;4999002;28;20443;-64
2022/03/13 06:39:18;;;;;;;5.88;4.57;;;;;;;;;;5002294;28;20100;-65
2022/03/13 06:41:44;;;;;;;5.22;4.72;;;;;;;;;;5001904;28;20093;-64
2022/03/13 06:44:09;;;;;;;6.18;5.57;;;;;;;;;;5001163;28;20026;-65
2022/03/13 06:46:35;;;;;;;5.40;4.88;;;;;;;;;;4999334;28;20058;-65
2022/03/13 06:49:05;;;;;;;6.40;5.32;;;;;;;;;;4999588;28;20119;-65
2022/03/13 06:51:30;;;;;;;5.53;4.50;;;;;;;;;;5001451;28;20727;-65
2022/03/13 06:53:56;;;;;;;4.82;4.43;;;;;;;;;;5002263;28;20108;-65
2022/03/13 06:56:22;;;;;;;14.63;6.22;;;;;;;;;;5008716;28;20036;-66
2022/03/13 06:58:47;;;;;;;5.53;5.05;;;;;;;;;;5000369;28;20030;-65
2022/03/13 07:01:12;;;;;;;6.53;5.88;;;;;;;;;;5000645;28;20041;-65
2022/03/13 07:03:38;;;;;;;4.88;4.47;;;;;;;;;;5000578;28;20034;-65
2022/03/13 07:06:03;;;;;;;4.93;4.50;;;;;;;;;;5002724;28;20026;-65
2022/03/13 07:08:35;;;;;;;4.75;4.35;;;;;;;;;;5003855;28;20357;-65
2022/03/13 07:11:01;;;;;;;5.20;4.68;;;;;;;;;;4990222;28;20034;-65
2022/03/13 07:13:33;;;;;;;5.68;4.38;;;;;;;;;;4996938;28;20042;-65
2022/03/13 07:16:03;;;;;;;5.00;4.60;;;;;;;;;;5002638;28;20038;-65
2022/03/13 07:18:31;;;;;;;5.95;5.35;;;;;;;;;;5001576;28;20030;-65
2022/03/13 07:20:57;;;;;;;6.20;5.70;;;;;;;;;;5001347;28;20058;-65
2022/03/13 07:23:23;;;;;;;6.45;5.95;;;;;;;;;;4999244;28;20084;-65
2022/03/13 07:25:49;;;;;;;6.68;5.97;;;;;;;;;;5002134;28;20046;-65
2022/03/13 07:28:15;;;;;;;6.55;5.40;;;;;;;;;;5002382;28;20022;-65
2022/03/13 07:30:40;;;;;;;5.63;5.13;;;;;;;;;;4999442;28;20372;-65
2022/03/13 07:33:06;;;;;;;6.78;6.10;;;;;;;;;;5001533;28;20130;-65
2022/03/13 07:35:31;;;;;;;5.15;4.75;;;;;;;;;;4999438;28;20467;-63
2022/03/13 07:37:57;;;;;;;6.60;6.00;;;;;;;;;;5001790;28;20042;-62
2022/03/13 07:40:22;;;;;;;6.47;5.95;;;;;;;;;;4999993;28;20688;-61
2022/03/13 07:42:47;;;;;;;5.57;5.07;;;;;;;;;;5000552;28;20044;-62
2022/03/13 07:45:13;;;;;;;7.15;6.57;;;;;;;;;;5002650;28;20113;-62
2022/03/13 07:47:39;;;;;;;6.32;5.82;;;;;;;;;;5003336;28;20033;-61
2022/03/13 07:50:05;;;;;;;7.28;6.68;;;;;;;;;;4996927;28;20053;-61
2022/03/13 07:52:30;;;;;;;7.35;6.68;;;;;;;;;;5001714;28;20661;-62
2022/03/13 07:54:56;;;;;;;5.60;5.18;;;;;;;;;;5000126;28;20115;-63
2022/03/13 07:57:21;;;;;;;7.18;6.53;;;;;;;;;;4999879;28;20045;-62
2022/03/13 07:59:49;;;;;;;6.80;6.30;;;;;;;;;;4996923;28;20538;-63
2022/03/13 08:02:15;;;;;;;5.30;4.90;;;;;;;;;;5006518;28;20027;-62
2022/03/13 08:04:41;;;;;;;5.63;5.13;;;;;;;;;;4997668;28;20321;-62
2022/03/13 08:07:07;;;;;;;5.80;5.30;;;;;;;;;;4998933;28;20116;-62
2022/03/13 08:09:34;;;;;;;6.45;5.95;;;;;;;;;;5000775;28;20148;-63
2022/03/13 08:12:00;;;;;;;6.82;6.32;;;;;;;;;;4999249;28;20050;-63
2022/03/13 08:14:26;;;;;;;6.20;5.70;;;;;;;;;;4998513;28;20068;-63
2022/03/13 08:16:51;;;;;;;6.25;5.75;;;;;;;;;;5000276;28;20038;-65
2022/03/13 08:19:17;;;;;;;7.80;7.15;;;;;;;;;;4998309;28;20042;-62
2022/03/13 08:21:43;;;;;;;6.97;5.82;;;;;;;;;;5000137;28;20141;-62
2022/03/13 08:24:09;;;;;;;5.95;5.45;;;;;;;;;;4997305;28;20026;-62
2022/03/13 08:26:38;;;;;;;6.53;6.03;;;;;;;;;;4998373;28;20399;-62
2022/03/13 08:29:07;;;;;;;7.28;6.57;;;;;;;;;;4997938;28;20118;-62
2022/03/13 08:31:33;;;;;;;5.85;5.30;;;;;;;;;;4999106;28;20037;-62
2022/03/13 08:33:59;;;;;;;6.47;5.90;;;;;;;;;;4994889;28;20480;-62
2022/03/13 08:36:25;;;;;;;7.03;6.43;;;;;;;;;;5000118;28;20056;-61
2022/03/13 08:38:52;;;;;;;6.38;5.88;;;;;;;;;;4999911;28;20639;-60
2022/03/13 08:41:18;;;;;;;6.28;5.75;;;;;;;;;;4999847;28;20091;-61
2022/03/13 08:43:43;;;;;;;6.28;5.78;;;;;;;;;;4997565;28;20045;-60
2022/03/13 08:46:09;;;;;;;6.75;6.15;;;;;;;;;;4999076;28;20029;-61
2022/03/13 08:48:35;;;;;;;6.78;6.18;;;;;;;;;;4997014;28;20101;-61
2022/03/13 08:51:02;;;;;;;5.72;5.22;;;;;;;;;;5000965;28;20471;-61
2022/03/13 08:53:27;;;;;;;6.78;6.28;;;;;;;;;;4996906;28;20042;-61
2022/03/13 08:55:53;;;;;;;6.43;5.82;;;;;;;;;;4998447;28;20092;-62
2022/03/13 08:58:18;;;;;;;6.55;6.05;;;;;;;;;;4999188;28;20034;-62
2022/03/13 09:00:44;;;;;;;12.30;6.90;;;;;;;;;;4996279;28;20062;-61
2022/03/13 09:03:09;;;;;;;7.60;7.00;;;;;;;;;;4998223;28;20125;-61
2022/03/13 09:05:35;;;;;;;6.47;5.97;;;;;;;;;;4996392;28;20616;-61
2022/03/13 09:08:01;;;;;;;6.78;6.10;;;;;;;;;;4999015;28;20021;-62
2022/03/13 09:10:26;;;;;;;7.63;6.85;;;;;;;;;;4997913;28;20116;-61
2022/03/13 09:12:51;;;;;;;7.18;6.57;;;;;;;;;;4995709;28;20116;-61
2022/03/13 09:15:17;;;;;;;8.45;7.47;;;;;;;;;;4998028;28;20029;-61
2022/03/13 09:17:42;;;;;;;7.25;6.65;;;;;;;;;;4997440;28;20033;-62
2022/03/13 09:20:09;;;;;;;8.48;7.78;;;;;;;;;;4995751;28;20133;-61
2022/03/13 09:22:35;;;;;;;6.80;6.20;;;;;;;;;;4997119;28;20045;-61
2022/03/13 09:25:01;;;;;;;7.65;6.75;;;;;;;;;;4997766;28;20096;-61
2022/03/13 09:27:28;;;;;;;7.43;5.80;;;;;;;;;;4999291;28;20030;-62
2022/03/13 09:29:54;;;;;;;6.75;6.10;;;;;;;;;;4992717;28;20145;-61
2022/03/13 09:32:22;;;;;;;6.80;6.13;;;;;;;;;;4995084;28;20030;-60
2022/03/13 09:34:48;;;;;;;6.75;6.25;;;;;;;;;;4994774;28;20030;-60
2022/03/13 09:37:13;;;;;;;6.50;6.00;;;;;;;;;;4994383;28;20034;-60
2022/03/13 09:39:39;;;;;;;6.20;5.70;;;;;;;;;;4993371;28;20113;-60
2022/03/13 09:42:05;;;;;;;6.32;5.82;;;;;;;;;;4995532;28;20109;-61
2022/03/13 09:44:30;;;;;;;8.50;7.72;;;;;;;;;;4995922;28;20042;-61
2022/03/13 09:46:55;;;;;;;7.22;6.72;;;;;;;;;;4995677;28;20061;-61
2022/03/13 09:49:23;;;;;;;7.32;6.72;;;;;;;;;;4992540;28;20042;-61
2022/03/13 09:51:49;;;;;;;7.25;6.65;;;;;;;;;;4993088;28;20414;-61
2022/03/13 09:54:14;;;;;;;8.07;7.38;;;;;;;;;;4994879;28;20037;-60
2022/03/13 09:56:40;;;;;;;7.35;6.25;;;;;;;;;;4999661;28;20022;-61
2022/03/13 09:59:06;;;;;;;8.02;7.43;;;;;;;;;;5000900;28;20058;-61
2022/03/13 10:01:32;;;;;;;7.60;6.90;;;;;;;;;;5001546;28;20048;-60
2022/03/13 10:03:58;;;;;;;7.35;6.70;;;;;;;;;;4994128;28;20038;-61
2022/03/13 10:06:25;;;;;;;7.50;6.80;;;;;;;;;;4993176;28;20034;-61
2022/03/13 10:08:50;;;;;;;8.85;7.25;;;;;;;;;;4997406;28;20687;-61
2022/03/13 10:11:16;;;;;;;7.85;7.25;;;;;;;;;;4995867;28;20045;-61
2022/03/13 10:13:46;;;;;;;14.48;7.13;;;;;;;;;;4995133;28;20359;-61
2022/03/13 10:16:19;;;;;;;8.82;8.13;;;;;;;;;;4998234;28;20030;-61
2022/03/13 10:18:45;;;;;;;7.85;7.15;;;;;;;;;;4997121;28;20052;-61
2022/03/13 10:21:13;;;;;;;8.05;7.45;;;;;;;;;;4997180;28;20028;-61
2022/03/13 10:23:40;;;;;;;6.88;6.38;;;;;;;;;;4996060;28;20038;-60
2022/03/13 10:26:06;;;;;;;7.82;7.15;;;;;;;;;;4999018;28;20053;-59
2022/03/13 10:28:36;;;;;;;7.90;7.22;;;;;;;;;;4997946;28;20444;-59
2022/03/13 10:31:02;;;;;;;6.90;6.40;;;;;;;;;;4997840;28;20045;-59
2022/03/13 10:33:43;;;;;;;7.13;6.43;;;;;;;;;;4996093;28;20069;-59
2022/03/13 10:36:11;;;;;;;10.20;7.53;;;;;;;;;;4998872;28;20042;-59
2022/03/13 10:38:37;;;;;;;6.57;6.00;;;;;;;;;;4996247;28;20050;-59
2022/03/13 10:41:08;;;;;;;8.23;7.28;;;;;;;;;;4996728;28;20026;-59
2022/03/13 10:43:34;;;;;;;7.90;7.30;;;;;;;;;;4996034;28;20030;-58
2022/03/13 10:46:01;;;;;;;8.23;7.63;;;;;;;;;;4995028;28;20134;-59
2022/03/13 10:48:28;;;;;;;7.88;7.28;;;;;;;;;;4995740;28;20042;-60
2022/03/13 10:50:59;;;;;;;9.00;7.75;;;;;;;;;;4998306;28;20112;-59
2022/03/13 10:53:27;;;;;;;13.68;8.80;;;;;;;;;;4997544;28;20099;-60
2022/03/13 10:56:20;;;;;;;7.72;6.82;;;;;;;;;;4994431;28;20056;-60
2022/03/13 10:58:47;;;;;;;8.32;7.68;;;;;;;;;;4996837;28;20046;-61
2022/03/13 11:01:19;;;;;;;7.95;7.25;;;;;;;;;;4999630;28;20029;-61
2022/03/13 11:03:55;;;;;;;6.65;6.10;;;;;;;;;;4996178;28;20064;-60
2022/03/13 11:06:22;;;;;;;8.15;7.55;;;;;;;;;;4997775;28;20108;-61
2022/03/13 11:08:51;;;;;;;7.57;6.97;;;;;;;;;;4999029;28;20022;-61
2022/03/13 11:11:18;;;;;;;7.90;7.30;;;;;;;;;;4997448;28;20040;-61
2022/03/13 11:13:50;;;;;;;8.30;7.60;;;;;;;;;;4993808;28;20035;-61
2022/03/13 11:16:21;;;;;;;9.32;8.52;;;;;;;;;;4997726;28;20041;-60
2022/03/13 11:18:51;;;;;;;7.20;6.60;;;;;;;;;;4997616;28;20041;-60
2022/03/13 11:21:16;;;;;;;7.18;6.57;;;;;;;;;;4999042;28;20201;-59
2022/03/13 11:23:42;;;;;;;8.18;7.53;;;;;;;;;;4999313;28;20144;-60
2022/03/13 11:26:07;;;;;;;7.32;6.72;;;;;;;;;;5000045;28;20030;-60
2022/03/13 11:28:34;;;;;;;7.95;7.28;;;;;;;;;;5002554;28;20040;-61
2022/03/13 11:30:59;;;;;;;7.57;6.97;;;;;;;;;;5008839;28;20143;-61
2022/03/13 11:33:41;;;;;;;8.40;7.70;;;;;;;;;;5001547;28;20479;-60
2022/03/13 11:36:27;;;;;;;6.97;6.38;;;;;;;;;;5000635;28;20026;-59
2022/03/13 11:38:58;;;;;;;7.55;6.95;;;;;;;;;;5000545;28;20050;-59
2022/03/13 11:41:34;;;;;;;6.93;6.20;;;;;;;;;;5001633;28;20053;-59
2022/03/13 11:44:25;;;;;;;8.02;7.32;;;;;;;;;;5004098;28;20061;-60
2022/03/13 11:46:53;;;;;;;7.55;6.63;;;;;;;;;;4992306;28;20050;-60
2022/03/13 11:49:34;;;;;;;7.88;7.18;;;;;;;;;;4998821;28;20484;-59
2022/03/13 11:52:12;;;;;;;7.72;7.05;;;;;;;;;;5003251;28;20045;-60
2022/03/13 11:54:47;;;;;;;6.97;6.47;;;;;;;;;;5002741;28;20042;-60
2022/03/13 11:57:16;;;;;;;7.72;7.13;;;;;;;;;;4999401;28;20403;-59
2022/03/13 11:59:49;;;;;;;6.88;6.35;;;;;;;;;;4999854;28;20522;-59
2022/03/13 12:02:41;;;;;;;8.35;7.63;;;;;;;;;;4998565;28;20597;-59
2022/03/13 12:05:25;;;;;;;7.75;7.15;;;;;;;;;;5000953;28;20029;-60
2022/03/13 12:07:55;;;;;;;6.88;6.38;;;;;;;;;;5001465;28;20124;-60
2022/03/13 12:10:30;;;;;;;7.33;6.83;;;;;;;;;;5000774;28;20038;-59
2022/03/13 12:13:05;;;;;;;7.65;6.97;;;;;;;;;;5000387;28;20042;-60
2022/03/13 12:15:31;;;;;;;6.25;5.75;;;;;;;;;;5000792;28;20909;-60
2022/03/13 12:18:01;;;;;;;7.55;6.97;;;;;;;;;;5000083;28;20049;-59
2022/03/13 12:20:33;;;;;;;10.18;9.13;;;;;;;;;;4999818;28;20789;-57
2022/03/13 12:23:00;;;;;;;8.32;7.65;;;;;;;;;;5001265;28;20515;-59
2022/03/13 12:25:27;;;;;;;7.72;7.00;;;;;;;;;;5001199;28;20029;-60
2022/03/13 12:27:57;;;;;;;8.88;8.18;;;;;;;;;;4998658;28;20065;-60
2022/03/13 12:30:24;;;;;;;7.90;7.20;;;;;;;;;;4998694;28;20109;-60
2022/03/13 12:33:00;;;;;;;8.80;7.85;;;;;;;;;;4997489;28;20040;-59
2022/03/13 12:35:26;;;;;;;9.13;8.43;;;;;;;;;;4996500;28;20034;-59
2022/03/13 12:37:57;;;;;;;9.40;8.60;;;;;;;;;;4998115;28;20029;-59
2022/03/13 12:40:23;;;;;;;;;;;;;;;;;;5000269;28;20581;-59
2022/03/13 12:42:56;;;;;;;9.85;7.57;;;;;;;;;;4997372;28;20005;-58
2022/03/13 12:45:22;;;;;;;8.23;7.60;;;;;;;;;;5000701;28;20026;-59
2022/03/13 12:47:49;;;;;;;8.57;7.88;;;;;;;;;;4999396;28;20113;-59
2022/03/13 12:50:17;;;;;;;7.88;7.28;;;;;;;;;;4996209;28;20139;-60
2022/03/13 12:52:52;;;;;;;7.72;7.05;;;;;;;;;;5000040;28;20057;-60
2022/03/13 12:55:18;;;;;;;9.55;8.27;;;;;;;;;;5000045;28;20092;-59
2022/03/13 12:57:51;;;;;;;8.32;7.50;;;;;;;;;;5001166;28;20023;-59
2022/03/13 13:00:17;;;;;;;8.95;8.15;;;;;;;;;;5000269;28;20044;-60
2022/03/13 13:02:43;;;;;;;7.50;6.90;;;;;;;;;;5001206;28;20037;-60
2022/03/13 13:05:12;;;;;;;9.40;8.60;;;;;;;;;;4998756;28;20034;-60
2022/03/13 13:07:40;;;;;;;11.00;9.98;;;;;;;;;;4997875;28;20427;-60
2022/03/13 13:10:09;;;;;;;14.32;12.85;;;;;;;;;;4996323;28;20027;-59
2022/03/13 13:12:36;;;;;;;8.50;7.63;;;;;;;;;;4998263;28;20423;-60
2022/03/13 13:15:08;;;;;;;9.02;8.13;;;;;;;;;;5005695;28;20038;-60
2022/03/13 13:17:34;;;;;;;7.97;7.28;;;;;;;;;;4998119;28;20341;-59
2022/03/13 13:20:03;;;;;;;9.50;8.80;;;;;;;;;;5000149;28;20041;-60
2022/03/13 13:22:31;;;;;;;10.15;9.20;;;;;;;;;;4997581;28;20027;-60
2022/03/13 13:25:08;;;;;;;10.23;9.43;;;;;;;;;;4998568;28;20507;-59
2022/03/13 13:27:35;;;;;;;8.85;7.95;;;;;;;;;;4999851;28;20083;-60
2022/03/13 13:30:19;;;;;;;8.95;8.25;;;;;;;;;;4998007;28;20030;-60
2022/03/13 13:32:58;;;;;;;9.00;8.30;;;;;;;;;;4998831;28;20037;-61
2022/03/13 13:35:31;;;;;;;9.65;8.80;;;;;;;;;;4999221;28;20041;-59
2022/03/13 13:38:14;;;;;;;10.95;10.13;;;;;;;;;;5000767;28;20038;-59
2022/03/13 13:40:44;;;;;;;8.13;7.53;;;;;;;;;;5000490;28;20053;-59
2022/03/13 13:43:31;;;;;;;9.77;9.02;;;;;;;;;;5006029;28;20325;-59
2022/03/13 13:46:11;;;;;;;8.90;8.10;;;;;;;;;;4994267;28;20046;-59
2022/03/13 13:48:46;;;;;;;9.70;8.63;;;;;;;;;;5002668;28;20443;-59
2022/03/13 13:51:16;;;;;;;9.52;8.68;;;;;;;;;;5001030;28;20041;-60
2022/03/13 13:54:11;;;;;;;8.43;7.65;;;;;;;;;;4995159;28;20534;-59
2022/03/13 13:56:41;;;;;;;9.75;8.68;;;;;;;;;;4994732;28;20041;-60
2022/03/13 13:59:24;;;;;;;9.60;8.80;;;;;;;;;;4994629;28;20072;-60
2022/03/13 14:02:11;;;;;;;10.40;8.52;;;;;;;;;;4994937;28;20121;-59
2022/03/13 14:04:40;;;;;;;9.80;8.95;;;;;;;;;;4996855;28;20030;-59
2022/03/13 14:07:06;;;;;;;9.63;8.43;;;;;;;;;;4997430;28;20360;-59
2022/03/13 14:09:32;;;;;;;11.00;9.88;;;;;;;;;;4998190;28;20041;-60
2022/03/13 14:11:58;;;;;;;11.27;9.10;;;;;;;;;;4997263;28;20111;-58
2022/03/13 14:14:23;;;;;;;9.45;8.55;;;;;;;;;;4994422;28;20030;-60
2022/03/13 14:16:49;;;;;;;10.18;9.27;;;;;;;;;;4997726;28;20491;-60
2022/03/13 14:19:14;;;;;;;10.52;9.60;;;;;;;;;;4998025;28;20113;-59
2022/03/13 14:21:40;;;;;;;10.02;9.13;;;;;;;;;;4995921;28;20041;-59
2022/03/13 14:24:07;;;;;;;10.50;9.50;;;;;;;;;;4998558;28;20430;-59
2022/03/13 14:26:33;;;;;;;10.65;8.73;;;;;;;;;;4998387;28;20231;-60
2022/03/13 14:28:59;;;;;;;10.52;9.63;;;;;;;;;;4997628;28;20486;-58
2022/03/13 14:31:26;;;;;;;9.95;9.10;;;;;;;;;;5000483;28;20505;-59
2022/03/13 14:33:51;;;;;;;10.93;9.82;;;;;;;;;;4997127;28;20029;-60
2022/03/13 14:36:16;;;;;;;10.90;10.00;;;;;;;;;;4995522;28;20053;-60
2022/03/13 14:38:49;;;;;;;9.55;8.80;;;;;;;;;;4995617;28;20034;-59
2022/03/13 14:41:17;;;;;;;8.00;7.40;;;;;;;;;;5004934;28;20034;-60
2022/03/13 14:43:44;;;;;;;9.27;8.32;;;;;;;;;;4997835;28;20356;-59
2022/03/13 14:46:10;;;;;;;21.42;9.48;;;;;;;;;;4997110;28;20034;-59